sensor_id;sensor_type;location;lat;lon;timestamp;P1;durP1;ratioP1;P2;durP2;ratioP2
71207;SDS011;58938;49.868;8.646;2023-04-06T00:00:57;8.98;;;5.55;;
71207;SDS011;58938;49.868;8.646;2023-04-06T00:03:23;10.95;;;5.60;;
71207;SDS011;58938;49.868;8.646;2023-04-06T00:05:49;11.68;;;5.82;;
71207;SDS011;58938;49.868;8.646;2023-04-06T00:08:15;11.23;;;6.00;;
71207;SDS011;58938;49.868;8.646;2023-04-06T00:10:41;11.07;;;6.03;;
71207;SDS011;58938;49.868;8.646;2023-04-06T00:13:07;12.18;;;6.80;;
71207;SDS011;58938;49.868;8.646;2023-04-06T00:15:33;10.15;;;5.40;;
71207;SDS011;58938;49.868;8.646;2023-04-06T00:18:00;9.75;;;5.93;;
71207;SDS011;58938;49.868;8.646;2023-04-06T00:20:25;9.20;;;5.53;;
71207;SDS011;58938;49.868;8.646;2023-04-06T00:22:52;9.55;;;6.00;;
71207;SDS011;58938;49.868;8.646;2023-04-06T00:25:18;10.18;;;6.30;;
71207;SDS011;58938;49.868;8.646;2023-04-06T00:27:45;9.63;;;5.95;;
71207;SDS011;58938;49.868;8.646;2023-04-06T00:30:11;13.77;;;6.43;;
71207;SDS011;58938;49.868;8.646;2023-04-06T00:32:37;9.25;;;6.15;;
71207;SDS011;58938;49.868;8.646;2023-04-06T00:35:03;11.52;;;6.78;;
71207;SDS011;58938;49.868;8.646;2023-04-06T00:37:29;11.88;;;6.45;;
71207;SDS011;58938;49.868;8.646;2023-04-06T00:39:55;11.95;;;7.28;;
71207;SDS011;58938;49.868;8.646;2023-04-06T00:42:21;11.90;;;6.47;;
71207;SDS011;58938;49.868;8.646;2023-04-06T00:44:54;11.00;;;7.22;;
71207;SDS011;58938;49.868;8.646;2023-04-06T00:47:21;12.52;;;7.13;;
71207;SDS011;58938;49.868;8.646;2023-04-06T00:49:47;17.30;;;6.78;;
71207;SDS011;58938;49.868;8.646;2023-04-06T00:52:13;12.60;;;6.78;;
71207;SDS011;58938;49.868;8.646;2023-04-06T00:54:39;12.87;;;7.20;;
71207;SDS011;58938;49.868;8.646;2023-04-06T00:57:05;10.90;;;5.93;;
71207;SDS011;58938;49.868;8.646;2023-04-06T00:59:31;11.35;;;5.78;;
71207;SDS011;58938;49.868;8.646;2023-04-06T01:01:57;9.70;;;5.85;;
71207;SDS011;58938;49.868;8.646;2023-04-06T01:04:23;11.45;;;6.72;;
71207;SDS011;58938;49.868;8.646;2023-04-06T01:06:49;10.73;;;6.40;;
71207;SDS011;58938;49.868;8.646;2023-04-06T01:09:19;8.25;;;5.63;;
71207;SDS011;58938;49.868;8.646;2023-04-06T01:11:45;11.63;;;5.85;;
71207;SDS011;58938;49.868;8.646;2023-04-06T01:14:10;11.30;;;6.05;;
71207;SDS011;58938;49.868;8.646;2023-04-06T01:16:36;10.57;;;5.50;;
71207;SDS011;58938;49.868;8.646;2023-04-06T01:19:09;9.15;;;6.28;;
71207;SDS011;58938;49.868;8.646;2023-04-06T01:21:36;9.77;;;6.25;;
71207;SDS011;58938;49.868;8.646;2023-04-06T01:24:02;9.55;;;5.93;;
71207;SDS011;58938;49.868;8.646;2023-04-06T01:26:28;9.77;;;6.30;;
71207;SDS011;58938;49.868;8.646;2023-04-06T01:28:54;11.63;;;6.03;;
71207;SDS011;58938;49.868;8.646;2023-04-06T01:31:20;11.07;;;6.45;;
71207;SDS011;58938;49.868;8.646;2023-04-06T01:33:46;9.43;;;5.75;;
71207;SDS011;58938;49.868;8.646;2023-04-06T01:36:12;9.75;;;5.80;;
71207;SDS011;58938;49.868;8.646;2023-04-06T01:38:39;8.95;;;6.03;;
71207;SDS011;58938;49.868;8.646;2023-04-06T01:41:06;9.60;;;5.50;;
71207;SDS011;58938;49.868;8.646;2023-04-06T01:43:32;9.48;;;5.50;;
71207;SDS011;58938;49.868;8.646;2023-04-06T01:45:58;8.60;;;5.90;;
71207;SDS011;58938;49.868;8.646;2023-04-06T01:48:24;8.80;;;5.65;;
71207;SDS011;58938;49.868;8.646;2023-04-06T01:50:50;9.37;;;5.73;;
71207;SDS011;58938;49.868;8.646;2023-04-06T01:53:16;8.88;;;5.20;;
71207;SDS011;58938;49.868;8.646;2023-04-06T01:55:42;9.57;;;5.55;;
71207;SDS011;58938;49.868;8.646;2023-04-06T01:58:08;10.00;;;6.03;;
71207;SDS011;58938;49.868;8.646;2023-04-06T02:00:34;14.47;;;6.60;;
71207;SDS011;58938;49.868;8.646;2023-04-06T02:03:00;10.45;;;5.88;;
71207;SDS011;58938;49.868;8.646;2023-04-06T02:05:26;9.20;;;5.85;;
71207;SDS011;58938;49.868;8.646;2023-04-06T02:07:52;9.57;;;5.85;;
71207;SDS011;58938;49.868;8.646;2023-04-06T02:10:18;12.00;;;5.43;;
71207;SDS011;58938;49.868;8.646;2023-04-06T02:12:44;12.15;;;6.15;;
71207;SDS011;58938;49.868;8.646;2023-04-06T02:15:10;10.48;;;6.30;;
71207;SDS011;58938;49.868;8.646;2023-04-06T02:17:38;11.07;;;6.75;;
71207;SDS011;58938;49.868;8.646;2023-04-06T02:20:04;11.52;;;6.88;;
71207;SDS011;58938;49.868;8.646;2023-04-06T02:22:31;13.70;;;6.57;;
71207;SDS011;58938;49.868;8.646;2023-04-06T02:24:57;11.07;;;6.22;;
71207;SDS011;58938;49.868;8.646;2023-04-06T02:27:23;10.40;;;5.68;;
71207;SDS011;58938;49.868;8.646;2023-04-06T02:29:50;12.27;;;6.40;;
71207;SDS011;58938;49.868;8.646;2023-04-06T02:32:16;11.02;;;6.47;;
71207;SDS011;58938;49.868;8.646;2023-04-06T02:34:42;11.97;;;6.13;;
71207;SDS011;58938;49.868;8.646;2023-04-06T02:37:08;12.88;;;7.03;;
71207;SDS011;58938;49.868;8.646;2023-04-06T02:39:34;11.02;;;6.03;;
71207;SDS011;58938;49.868;8.646;2023-04-06T02:42:00;13.55;;;7.13;;
71207;SDS011;58938;49.868;8.646;2023-04-06T02:44:26;12.33;;;6.97;;
71207;SDS011;58938;49.868;8.646;2023-04-06T02:46:52;10.35;;;6.18;;
71207;SDS011;58938;49.868;8.646;2023-04-06T02:49:18;11.27;;;5.95;;
71207;SDS011;58938;49.868;8.646;2023-04-06T02:51:44;13.50;;;6.88;;
71207;SDS011;58938;49.868;8.646;2023-04-06T02:54:10;11.82;;;7.82;;
71207;SDS011;58938;49.868;8.646;2023-04-06T02:56:36;9.73;;;5.67;;
71207;SDS011;58938;49.868;8.646;2023-04-06T02:59:02;9.88;;;5.82;;
71207;SDS011;58938;49.868;8.646;2023-04-06T03:01:28;9.68;;;5.75;;
71207;SDS011;58938;49.868;8.646;2023-04-06T03:03:55;11.35;;;6.15;;
71207;SDS011;58938;49.868;8.646;2023-04-06T03:06:21;10.00;;;5.90;;
71207;SDS011;58938;49.868;8.646;2023-04-06T03:08:47;9.65;;;5.78;;
71207;SDS011;58938;49.868;8.646;2023-04-06T03:11:13;9.68;;;6.07;;
71207;SDS011;58938;49.868;8.646;2023-04-06T03:13:39;11.43;;;5.70;;
71207;SDS011;58938;49.868;8.646;2023-04-06T03:16:05;12.07;;;6.00;;
71207;SDS011;58938;49.868;8.646;2023-04-06T03:18:31;10.07;;;6.40;;
71207;SDS011;58938;49.868;8.646;2023-04-06T03:20:58;11.52;;;5.43;;
71207;SDS011;58938;49.868;8.646;2023-04-06T03:23:25;10.00;;;5.97;;
71207;SDS011;58938;49.868;8.646;2023-04-06T03:25:51;10.20;;;6.20;;
71207;SDS011;58938;49.868;8.646;2023-04-06T03:28:17;9.27;;;6.10;;
71207;SDS011;58938;49.868;8.646;2023-04-06T03:30:43;11.67;;;6.53;;
71207;SDS011;58938;49.868;8.646;2023-04-06T03:33:09;14.30;;;7.20;;
71207;SDS011;58938;49.868;8.646;2023-04-06T03:35:35;12.35;;;8.02;;
71207;SDS011;58938;49.868;8.646;2023-04-06T03:38:01;13.48;;;6.93;;
71207;SDS011;58938;49.868;8.646;2023-04-06T03:40:27;13.48;;;7.35;;
71207;SDS011;58938;49.868;8.646;2023-04-06T03:42:53;14.97;;;8.23;;
71207;SDS011;58938;49.868;8.646;2023-04-06T03:45:19;17.17;;;9.68;;
71207;SDS011;58938;49.868;8.646;2023-04-06T03:47:46;15.00;;;8.25;;
71207;SDS011;58938;49.868;8.646;2023-04-06T03:50:12;14.65;;;8.35;;
71207;SDS011;58938;49.868;8.646;2023-04-06T03:52:38;15.90;;;7.77;;
71207;SDS011;58938;49.868;8.646;2023-04-06T03:55:04;15.20;;;7.28;;
71207;SDS011;58938;49.868;8.646;2023-04-06T03:57:30;12.30;;;6.53;;
71207;SDS011;58938;49.868;8.646;2023-04-06T03:59:56;13.43;;;7.07;;
71207;SDS011;58938;49.868;8.646;2023-04-06T04:02:22;10.83;;;6.40;;
71207;SDS011;58938;49.868;8.646;2023-04-06T04:04:48;10.38;;;6.03;;
71207;SDS011;58938;49.868;8.646;2023-04-06T04:07:14;12.68;;;7.88;;
71207;SDS011;58938;49.868;8.646;2023-04-06T04:09:40;12.60;;;6.85;;
71207;SDS011;58938;49.868;8.646;2023-04-06T04:12:06;13.47;;;6.93;;
71207;SDS011;58938;49.868;8.646;2023-04-06T04:14:32;10.10;;;5.90;;
71207;SDS011;58938;49.868;8.646;2023-04-06T04:16:58;11.68;;;7.07;;
71207;SDS011;58938;49.868;8.646;2023-04-06T04:19:24;13.13;;;6.35;;
71207;SDS011;58938;49.868;8.646;2023-04-06T04:21:50;11.87;;;6.10;;
71207;SDS011;58938;49.868;8.646;2023-04-06T04:24:16;11.07;;;6.50;;
71207;SDS011;58938;49.868;8.646;2023-04-06T04:26:42;11.90;;;6.82;;
71207;SDS011;58938;49.868;8.646;2023-04-06T04:29:07;13.57;;;6.47;;
71207;SDS011;58938;49.868;8.646;2023-04-06T04:31:34;11.03;;;6.77;;
71207;SDS011;58938;49.868;8.646;2023-04-06T04:34:00;16.95;;;6.85;;
71207;SDS011;58938;49.868;8.646;2023-04-06T04:36:26;11.80;;;7.30;;
71207;SDS011;58938;49.868;8.646;2023-04-06T04:38:52;12.75;;;7.28;;
71207;SDS011;58938;49.868;8.646;2023-04-06T04:41:18;14.00;;;7.67;;
71207;SDS011;58938;49.868;8.646;2023-04-06T04:43:44;12.45;;;6.75;;
71207;SDS011;58938;49.868;8.646;2023-04-06T04:46:10;15.48;;;8.60;;
71207;SDS011;58938;49.868;8.646;2023-04-06T04:48:36;12.38;;;7.32;;
71207;SDS011;58938;49.868;8.646;2023-04-06T04:51:03;12.63;;;8.17;;
71207;SDS011;58938;49.868;8.646;2023-04-06T04:53:30;15.50;;;7.30;;
71207;SDS011;58938;49.868;8.646;2023-04-06T04:55:56;14.50;;;7.75;;
71207;SDS011;58938;49.868;8.646;2023-04-06T04:58:22;17.27;;;7.40;;
71207;SDS011;58938;49.868;8.646;2023-04-06T05:00:48;13.80;;;7.67;;
71207;SDS011;58938;49.868;8.646;2023-04-06T05:03:17;14.10;;;7.40;;
71207;SDS011;58938;49.868;8.646;2023-04-06T05:05:43;15.55;;;8.60;;
71207;SDS011;58938;49.868;8.646;2023-04-06T05:08:09;13.98;;;7.85;;
71207;SDS011;58938;49.868;8.646;2023-04-06T05:10:35;13.98;;;7.90;;
71207;SDS011;58938;49.868;8.646;2023-04-06T05:13:01;15.00;;;7.67;;
71207;SDS011;58938;49.868;8.646;2023-04-06T05:15:27;14.98;;;7.75;;
71207;SDS011;58938;49.868;8.646;2023-04-06T05:17:53;15.05;;;7.30;;
71207;SDS011;58938;49.868;8.646;2023-04-06T05:20:19;15.30;;;8.00;;
71207;SDS011;58938;49.868;8.646;2023-04-06T05:22:45;13.73;;;7.60;;
71207;SDS011;58938;49.868;8.646;2023-04-06T05:25:12;13.50;;;7.60;;
71207;SDS011;58938;49.868;8.646;2023-04-06T05:27:38;13.40;;;7.30;;
71207;SDS011;58938;49.868;8.646;2023-04-06T05:30:05;14.85;;;8.07;;
71207;SDS011;58938;49.868;8.646;2023-04-06T05:32:31;14.90;;;8.00;;
71207;SDS011;58938;49.868;8.646;2023-04-06T05:34:57;15.40;;;7.40;;
71207;SDS011;58938;49.868;8.646;2023-04-06T05:37:23;17.08;;;9.60;;
71207;SDS011;58938;49.868;8.646;2023-04-06T05:39:49;14.77;;;7.75;;
71207;SDS011;58938;49.868;8.646;2023-04-06T05:42:15;17.23;;;7.87;;
71207;SDS011;58938;49.868;8.646;2023-04-06T05:44:41;15.82;;;7.47;;
71207;SDS011;58938;49.868;8.646;2023-04-06T05:47:07;19.10;;;9.25;;
71207;SDS011;58938;49.868;8.646;2023-04-06T05:49:33;14.48;;;7.97;;
71207;SDS011;58938;49.868;8.646;2023-04-06T05:52:00;16.63;;;8.32;;
71207;SDS011;58938;49.868;8.646;2023-04-06T05:54:26;14.93;;;8.10;;
71207;SDS011;58938;49.868;8.646;2023-04-06T05:56:52;16.20;;;8.20;;
71207;SDS011;58938;49.868;8.646;2023-04-06T05:59:18;15.77;;;8.43;;
71207;SDS011;58938;49.868;8.646;2023-04-06T06:01:45;19.83;;;8.60;;
71207;SDS011;58938;49.868;8.646;2023-04-06T06:04:11;13.35;;;9.02;;
71207;SDS011;58938;49.868;8.646;2023-04-06T06:06:37;21.37;;;9.80;;
71207;SDS011;58938;49.868;8.646;2023-04-06T06:09:03;16.77;;;9.77;;
71207;SDS011;58938;49.868;8.646;2023-04-06T06:11:29;17.63;;;9.68;;
71207;SDS011;58938;49.868;8.646;2023-04-06T06:13:55;16.33;;;9.63;;
71207;SDS011;58938;49.868;8.646;2023-04-06T06:16:21;14.82;;;8.77;;
71207;SDS011;58938;49.868;8.646;2023-04-06T06:18:47;16.97;;;8.63;;
71207;SDS011;58938;49.868;8.646;2023-04-06T06:21:13;20.20;;;11.48;;
71207;SDS011;58938;49.868;8.646;2023-04-06T06:23:42;17.98;;;9.63;;
71207;SDS011;58938;49.868;8.646;2023-04-06T06:26:08;17.58;;;9.80;;
71207;SDS011;58938;49.868;8.646;2023-04-06T06:28:34;14.30;;;8.37;;
71207;SDS011;58938;49.868;8.646;2023-04-06T06:31:00;16.40;;;8.43;;
71207;SDS011;58938;49.868;8.646;2023-04-06T06:33:26;16.42;;;9.07;;
71207;SDS011;58938;49.868;8.646;2023-04-06T06:35:52;15.30;;;8.45;;
71207;SDS011;58938;49.868;8.646;2023-04-06T06:38:18;13.10;;;8.50;;
71207;SDS011;58938;49.868;8.646;2023-04-06T06:40:45;16.15;;;9.23;;
71207;SDS011;58938;49.868;8.646;2023-04-06T06:43:11;17.02;;;9.15;;
71207;SDS011;58938;49.868;8.646;2023-04-06T06:45:37;15.95;;;9.05;;
71207;SDS011;58938;49.868;8.646;2023-04-06T06:48:03;17.95;;;9.48;;
71207;SDS011;58938;49.868;8.646;2023-04-06T06:50:29;14.00;;;9.07;;
71207;SDS011;58938;49.868;8.646;2023-04-06T06:52:55;15.60;;;9.30;;
71207;SDS011;58938;49.868;8.646;2023-04-06T06:55:21;15.50;;;9.48;;
71207;SDS011;58938;49.868;8.646;2023-04-06T06:57:47;17.35;;;10.40;;
71207;SDS011;58938;49.868;8.646;2023-04-06T07:00:13;19.50;;;8.27;;
71207;SDS011;58938;49.868;8.646;2023-04-06T07:02:40;13.70;;;9.07;;
71207;SDS011;58938;49.868;8.646;2023-04-06T07:05:06;17.45;;;9.02;;
71207;SDS011;58938;49.868;8.646;2023-04-06T07:07:32;14.57;;;8.50;;
71207;SDS011;58938;49.868;8.646;2023-04-06T07:09:59;16.13;;;9.07;;
71207;SDS011;58938;49.868;8.646;2023-04-06T07:12:25;19.10;;;8.50;;
71207;SDS011;58938;49.868;8.646;2023-04-06T07:14:51;17.08;;;9.18;;
71207;SDS011;58938;49.868;8.646;2023-04-06T07:17:17;14.38;;;8.95;;
71207;SDS011;58938;49.868;8.646;2023-04-06T07:19:43;14.13;;;8.43;;
71207;SDS011;58938;49.868;8.646;2023-04-06T07:22:10;16.10;;;9.30;;
71207;SDS011;58938;49.868;8.646;2023-04-06T07:24:35;17.93;;;9.43;;
71207;SDS011;58938;49.868;8.646;2023-04-06T07:27:02;8.73;;;4.35;;
71207;SDS011;58938;49.868;8.646;2023-04-06T07:29:28;19.02;;;8.82;;
71207;SDS011;58938;49.868;8.646;2023-04-06T07:31:54;20.40;;;9.40;;
71207;SDS011;58938;49.868;8.646;2023-04-06T07:34:20;17.53;;;9.07;;
71207;SDS011;58938;49.868;8.646;2023-04-06T07:36:46;13.90;;;8.55;;
71207;SDS011;58938;49.868;8.646;2023-04-06T07:39:13;18.40;;;9.40;;
71207;SDS011;58938;49.868;8.646;2023-04-06T07:41:39;16.05;;;9.63;;
71207;SDS011;58938;49.868;8.646;2023-04-06T07:44:05;14.50;;;9.25;;
71207;SDS011;58938;49.868;8.646;2023-04-06T07:46:31;14.43;;;8.93;;
71207;SDS011;58938;49.868;8.646;2023-04-06T07:48:59;16.10;;;8.73;;
71207;SDS011;58938;49.868;8.646;2023-04-06T07:51:26;17.30;;;9.18;;
71207;SDS011;58938;49.868;8.646;2023-04-06T07:53:52;18.50;;;8.60;;
71207;SDS011;58938;49.868;8.646;2023-04-06T07:56:18;14.13;;;8.82;;
71207;SDS011;58938;49.868;8.646;2023-04-06T07:58:45;16.93;;;8.93;;
71207;SDS011;58938;49.868;8.646;2023-04-06T08:01:11;14.88;;;8.45;;
71207;SDS011;58938;49.868;8.646;2023-04-06T08:03:38;15.75;;;7.97;;
71207;SDS011;58938;49.868;8.646;2023-04-06T08:06:04;17.48;;;10.23;;
71207;SDS011;58938;49.868;8.646;2023-04-06T08:08:30;18.70;;;10.48;;
71207;SDS011;58938;49.868;8.646;2023-04-06T08:10:56;17.33;;;8.97;;
71207;SDS011;58938;49.868;8.646;2023-04-06T08:13:22;17.40;;;9.88;;
71207;SDS011;58938;49.868;8.646;2023-04-06T08:15:48;16.17;;;9.10;;
71207;SDS011;58938;49.868;8.646;2023-04-06T08:18:14;15.65;;;9.32;;
71207;SDS011;58938;49.868;8.646;2023-04-06T08:20:40;14.73;;;8.10;;
71207;SDS011;58938;49.868;8.646;2023-04-06T08:23:06;16.80;;;9.60;;
71207;SDS011;58938;49.868;8.646;2023-04-06T08:25:35;17.70;;;9.15;;
71207;SDS011;58938;49.868;8.646;2023-04-06T08:28:01;15.32;;;9.27;;
71207;SDS011;58938;49.868;8.646;2023-04-06T08:30:27;15.27;;;9.38;;
71207;SDS011;58938;49.868;8.646;2023-04-06T08:32:53;13.00;;;7.07;;
71207;SDS011;58938;49.868;8.646;2023-04-06T08:35:19;15.13;;;8.95;;
71207;SDS011;58938;49.868;8.646;2023-04-06T08:37:45;13.52;;;8.10;;
71207;SDS011;58938;49.868;8.646;2023-04-06T08:40:11;15.30;;;9.27;;
71207;SDS011;58938;49.868;8.646;2023-04-06T08:42:39;17.88;;;7.97;;
71207;SDS011;58938;49.868;8.646;2023-04-06T08:45:08;16.03;;;7.73;;
71207;SDS011;58938;49.868;8.646;2023-04-06T08:47:35;15.23;;;8.40;;
71207;SDS011;58938;49.868;8.646;2023-04-06T08:50:03;14.95;;;8.75;;
71207;SDS011;58938;49.868;8.646;2023-04-06T08:52:29;18.23;;;9.27;;
71207;SDS011;58938;49.868;8.646;2023-04-06T08:54:57;15.82;;;8.30;;
71207;SDS011;58938;49.868;8.646;2023-04-06T08:57:23;17.03;;;9.33;;
71207;SDS011;58938;49.868;8.646;2023-04-06T08:59:49;10.02;;;5.45;;
71207;SDS011;58938;49.868;8.646;2023-04-06T09:02:17;10.30;;;6.63;;
71207;SDS011;58938;49.868;8.646;2023-04-06T09:04:45;14.82;;;8.85;;
71207;SDS011;58938;49.868;8.646;2023-04-06T09:07:11;12.90;;;7.85;;
71207;SDS011;58938;49.868;8.646;2023-04-06T09:09:38;17.63;;;8.63;;
71207;SDS011;58938;49.868;8.646;2023-04-06T09:12:08;14.27;;;8.82;;
71207;SDS011;58938;49.868;8.646;2023-04-06T09:14:37;14.43;;;8.73;;
71207;SDS011;58938;49.868;8.646;2023-04-06T09:17:04;16.52;;;8.20;;
71207;SDS011;58938;49.868;8.646;2023-04-06T09:19:30;13.68;;;8.27;;
71207;SDS011;58938;49.868;8.646;2023-04-06T09:22:06;16.70;;;9.03;;
71207;SDS011;58938;49.868;8.646;2023-04-06T09:24:45;14.55;;;8.38;;
71207;SDS011;58938;49.868;8.646;2023-04-06T09:27:12;15.10;;;8.57;;
71207;SDS011;58938;49.868;8.646;2023-04-06T09:29:38;18.90;;;8.60;;
71207;SDS011;58938;49.868;8.646;2023-04-06T09:32:04;7.28;;;4.80;;
71207;SDS011;58938;49.868;8.646;2023-04-06T09:34:31;14.00;;;7.53;;
71207;SDS011;58938;49.868;8.646;2023-04-06T09:36:57;11.85;;;7.35;;
71207;SDS011;58938;49.868;8.646;2023-04-06T09:39:23;15.20;;;6.80;;
71207;SDS011;58938;49.868;8.646;2023-04-06T09:41:51;11.63;;;7.18;;
71207;SDS011;58938;49.868;8.646;2023-04-06T09:44:17;16.67;;;9.50;;
71207;SDS011;58938;49.868;8.646;2023-04-06T09:46:44;19.30;;;10.10;;
71207;SDS011;58938;49.868;8.646;2023-04-06T09:49:11;13.38;;;7.72;;
71207;SDS011;58938;49.868;8.646;2023-04-06T09:51:41;15.55;;;8.60;;
71207;SDS011;58938;49.868;8.646;2023-04-06T09:54:07;14.48;;;8.63;;
71207;SDS011;58938;49.868;8.646;2023-04-06T09:56:37;16.98;;;7.60;;
71207;SDS011;58938;49.868;8.646;2023-04-06T09:59:07;15.47;;;9.63;;
71207;SDS011;58938;49.868;8.646;2023-04-06T10:01:34;18.50;;;9.60;;
71207;SDS011;58938;49.868;8.646;2023-04-06T10:06:46;19.80;;;9.35;;
71207;SDS011;58938;49.868;8.646;2023-04-06T10:09:17;16.75;;;8.43;;
71207;SDS011;58938;49.868;8.646;2023-04-06T10:11:44;15.47;;;8.37;;
71207;SDS011;58938;49.868;8.646;2023-04-06T10:14:11;17.95;;;8.52;;
71207;SDS011;58938;49.868;8.646;2023-04-06T10:16:37;17.27;;;10.07;;
71207;SDS011;58938;49.868;8.646;2023-04-06T10:19:10;16.40;;;9.13;;
71207;SDS011;58938;49.868;8.646;2023-04-06T10:21:37;20.08;;;8.48;;
71207;SDS011;58938;49.868;8.646;2023-04-06T10:24:06;20.23;;;9.03;;
71207;SDS011;58938;49.868;8.646;2023-04-06T10:26:35;17.52;;;8.55;;
71207;SDS011;58938;49.868;8.646;2023-04-06T10:29:04;13.90;;;7.07;;
71207;SDS011;58938;49.868;8.646;2023-04-06T10:31:30;18.27;;;8.73;;
71207;SDS011;58938;49.868;8.646;2023-04-06T10:34:00;18.25;;;8.85;;
71207;SDS011;58938;49.868;8.646;2023-04-06T10:36:27;17.47;;;9.33;;
71207;SDS011;58938;49.868;8.646;2023-04-06T10:38:57;18.90;;;9.55;;
71207;SDS011;58938;49.868;8.646;2023-04-06T10:41:23;14.80;;;8.40;;
71207;SDS011;58938;49.868;8.646;2023-04-06T10:43:56;16.38;;;7.85;;
71207;SDS011;58938;49.868;8.646;2023-04-06T10:46:26;20.02;;;9.07;;
71207;SDS011;58938;49.868;8.646;2023-04-06T10:48:52;16.17;;;9.90;;
71207;SDS011;58938;49.868;8.646;2023-04-06T10:51:18;15.20;;;8.23;;
71207;SDS011;58938;49.868;8.646;2023-04-06T10:53:45;15.38;;;8.18;;
71207;SDS011;58938;49.868;8.646;2023-04-06T10:56:13;16.83;;;9.95;;
71207;SDS011;58938;49.868;8.646;2023-04-06T10:58:52;15.88;;;9.68;;
71207;SDS011;58938;49.868;8.646;2023-04-06T11:01:19;16.63;;;9.43;;
71207;SDS011;58938;49.868;8.646;2023-04-06T11:03:49;19.20;;;10.45;;
71207;SDS011;58938;49.868;8.646;2023-04-06T11:06:21;15.43;;;8.68;;
71207;SDS011;58938;49.868;8.646;2023-04-06T11:08:47;16.35;;;9.32;;
71207;SDS011;58938;49.868;8.646;2023-04-06T11:11:13;17.50;;;7.60;;
71207;SDS011;58938;49.868;8.646;2023-04-06T11:16:19;19.52;;;9.25;;
71207;SDS011;58938;49.868;8.646;2023-04-06T11:18:52;15.10;;;8.95;;
71207;SDS011;58938;49.868;8.646;2023-04-06T11:21:19;14.27;;;8.85;;
71207;SDS011;58938;49.868;8.646;2023-04-06T11:23:45;15.35;;;9.25;;
71207;SDS011;58938;49.868;8.646;2023-04-06T11:26:12;17.77;;;8.97;;
71207;SDS011;58938;49.868;8.646;2023-04-06T11:28:39;15.05;;;9.27;;
71207;SDS011;58938;49.868;8.646;2023-04-06T11:31:05;13.10;;;7.55;;
71207;SDS011;58938;49.868;8.646;2023-04-06T11:33:35;15.90;;;9.07;;
71207;SDS011;58938;49.868;8.646;2023-04-06T11:36:02;12.93;;;8.05;;
71207;SDS011;58938;49.868;8.646;2023-04-06T11:38:28;16.67;;;9.23;;
71207;SDS011;58938;49.868;8.646;2023-04-06T11:40:55;15.00;;;8.40;;
71207;SDS011;58938;49.868;8.646;2023-04-06T11:43:28;15.65;;;9.27;;
71207;SDS011;58938;49.868;8.646;2023-04-06T11:45:59;17.85;;;9.25;;
71207;SDS011;58938;49.868;8.646;2023-04-06T11:48:26;13.93;;;7.88;;
71207;SDS011;58938;49.868;8.646;2023-04-06T11:50:58;15.87;;;8.73;;
71207;SDS011;58938;49.868;8.646;2023-04-06T11:53:26;15.63;;;8.55;;
71207;SDS011;58938;49.868;8.646;2023-04-06T11:55:52;14.63;;;8.23;;
71207;SDS011;58938;49.868;8.646;2023-04-06T11:58:18;9.93;;;5.57;;
71207;SDS011;58938;49.868;8.646;2023-04-06T12:00:44;16.13;;;8.77;;
71207;SDS011;58938;49.868;8.646;2023-04-06T12:03:11;17.17;;;9.33;;
71207;SDS011;58938;49.868;8.646;2023-04-06T12:05:37;14.50;;;8.23;;
71207;SDS011;58938;49.868;8.646;2023-04-06T12:08:04;15.75;;;7.85;;
71207;SDS011;58938;49.868;8.646;2023-04-06T12:10:30;16.23;;;7.70;;
71207;SDS011;58938;49.868;8.646;2023-04-06T12:12:56;16.40;;;9.18;;
71207;SDS011;58938;49.868;8.646;2023-04-06T12:15:22;14.73;;;8.40;;
71207;SDS011;58938;49.868;8.646;2023-04-06T12:17:48;13.88;;;7.80;;
71207;SDS011;58938;49.868;8.646;2023-04-06T12:20:17;13.98;;;7.90;;
71207;SDS011;58938;49.868;8.646;2023-04-06T12:22:43;14.93;;;8.02;;
71207;SDS011;58938;49.868;8.646;2023-04-06T12:25:09;14.57;;;9.32;;
71207;SDS011;58938;49.868;8.646;2023-04-06T12:27:35;15.63;;;8.60;;
71207;SDS011;58938;49.868;8.646;2023-04-06T12:30:01;14.55;;;8.05;;
71207;SDS011;58938;49.868;8.646;2023-04-06T12:32:28;14.77;;;8.18;;
71207;SDS011;58938;49.868;8.646;2023-04-06T12:34:54;14.13;;;8.07;;
71207;SDS011;58938;49.868;8.646;2023-04-06T12:37:20;15.45;;;6.68;;
71207;SDS011;58938;49.868;8.646;2023-04-06T12:39:46;13.83;;;8.27;;
71207;SDS011;58938;49.868;8.646;2023-04-06T12:42:12;13.43;;;7.53;;
71207;SDS011;58938;49.868;8.646;2023-04-06T12:44:39;12.18;;;7.13;;
71207;SDS011;58938;49.868;8.646;2023-04-06T12:47:05;13.10;;;7.45;;
71207;SDS011;58938;49.868;8.646;2023-04-06T12:49:32;12.40;;;6.97;;
71207;SDS011;58938;49.868;8.646;2023-04-06T12:51:58;12.40;;;7.13;;
71207;SDS011;58938;49.868;8.646;2023-04-06T12:54:24;13.23;;;7.20;;
71207;SDS011;58938;49.868;8.646;2023-04-06T12:56:51;13.70;;;6.68;;
71207;SDS011;58938;49.868;8.646;2023-04-06T12:59:17;12.23;;;7.32;;
71207;SDS011;58938;49.868;8.646;2023-04-06T13:01:43;11.23;;;6.72;;
71207;SDS011;58938;49.868;8.646;2023-04-06T13:04:10;11.93;;;7.13;;
71207;SDS011;58938;49.868;8.646;2023-04-06T13:06:36;14.50;;;7.05;;
71207;SDS011;58938;49.868;8.646;2023-04-06T13:09:02;11.75;;;7.05;;
71207;SDS011;58938;49.868;8.646;2023-04-06T13:11:30;13.50;;;6.85;;
71207;SDS011;58938;49.868;8.646;2023-04-06T13:13:56;12.20;;;7.50;;
71207;SDS011;58938;49.868;8.646;2023-04-06T13:16:22;12.23;;;6.37;;
71207;SDS011;58938;49.868;8.646;2023-04-06T13:18:48;15.38;;;8.20;;
71207;SDS011;58938;49.868;8.646;2023-04-06T13:21:16;12.50;;;7.15;;
71207;SDS011;58938;49.868;8.646;2023-04-06T13:23:42;12.98;;;6.10;;
71207;SDS011;58938;49.868;8.646;2023-04-06T13:26:08;13.02;;;7.07;;
71207;SDS011;58938;49.868;8.646;2023-04-06T13:28:35;13.03;;;7.50;;
71207;SDS011;58938;49.868;8.646;2023-04-06T13:31:02;12.50;;;6.80;;
71207;SDS011;58938;49.868;8.646;2023-04-06T13:33:29;13.48;;;7.88;;
71207;SDS011;58938;49.868;8.646;2023-04-06T13:35:55;13.90;;;7.55;;
71207;SDS011;58938;49.868;8.646;2023-04-06T13:38:21;11.05;;;6.38;;
71207;SDS011;58938;49.868;8.646;2023-04-06T13:40:49;13.13;;;7.47;;
71207;SDS011;58938;49.868;8.646;2023-04-06T13:43:15;12.52;;;8.20;;
71207;SDS011;58938;49.868;8.646;2023-04-06T13:45:43;14.00;;;7.40;;
71207;SDS011;58938;49.868;8.646;2023-04-06T13:48:14;15.25;;;7.45;;
71207;SDS011;58938;49.868;8.646;2023-04-06T13:50:40;14.52;;;7.72;;
71207;SDS011;58938;49.868;8.646;2023-04-06T13:53:06;13.00;;;8.00;;
71207;SDS011;58938;49.868;8.646;2023-04-06T13:55:32;17.55;;;7.50;;
71207;SDS011;58938;49.868;8.646;2023-04-06T13:57:58;14.00;;;8.35;;
71207;SDS011;58938;49.868;8.646;2023-04-06T14:00:24;11.80;;;8.02;;
71207;SDS011;58938;49.868;8.646;2023-04-06T14:02:50;12.35;;;8.40;;
71207;SDS011;58938;49.868;8.646;2023-04-06T14:05:16;12.57;;;6.93;;
71207;SDS011;58938;49.868;8.646;2023-04-06T14:07:42;14.57;;;8.10;;
71207;SDS011;58938;49.868;8.646;2023-04-06T14:10:08;14.18;;;7.88;;
71207;SDS011;58938;49.868;8.646;2023-04-06T14:12:39;13.30;;;8.07;;
71207;SDS011;58938;49.868;8.646;2023-04-06T14:15:05;12.23;;;6.72;;
71207;SDS011;58938;49.868;8.646;2023-04-06T14:17:32;13.00;;;7.33;;
71207;SDS011;58938;49.868;8.646;2023-04-06T14:19:58;13.85;;;8.40;;
71207;SDS011;58938;49.868;8.646;2023-04-06T14:22:24;15.43;;;7.75;;
71207;SDS011;58938;49.868;8.646;2023-04-06T14:24:50;14.15;;;8.70;;
71207;SDS011;58938;49.868;8.646;2023-04-06T14:27:16;15.70;;;8.65;;
71207;SDS011;58938;49.868;8.646;2023-04-06T14:29:42;15.70;;;8.90;;
71207;SDS011;58938;49.868;8.646;2023-04-06T14:32:08;13.95;;;7.82;;
71207;SDS011;58938;49.868;8.646;2023-04-06T14:34:36;13.82;;;7.80;;
71207;SDS011;58938;49.868;8.646;2023-04-06T14:37:02;12.98;;;7.18;;